createdAt,value
2022-11-15T00:00:13.296Z,6.03
2022-11-15T00:05:14.920Z,6.06
2022-11-15T00:10:16.857Z,6.10
2022-11-15T00:15:18.379Z,6.13
2022-11-15T00:20:19.771Z,6.15
2022-11-15T00:25:22.235Z,6.18
2022-11-15T00:30:25.601Z,6.23
2022-11-15T00:35:28.244Z,6.27
2022-11-15T00:40:33.032Z,6.32
2022-11-15T00:45:34.557Z,6.35
2022-11-15T00:50:37.168Z,6.34
2022-11-15T00:55:38.615Z,6.33
2022-11-15T01:00:40.160Z,6.34
2022-11-15T01:05:41.644Z,6.40
2022-11-15T01:10:43.075Z,6.38
2022-11-15T01:15:44.561Z,6.40
2022-11-15T01:20:45.989Z,6.51
2022-11-15T01:25:47.411Z,6.52
2022-11-15T01:30:48.989Z,6.54
2022-11-15T01:35:50.358Z,6.59
2022-11-15T01:40:51.790Z,6.69
2022-11-15T01:46:17.224Z,6.69
2022-11-15T01:51:21.309Z,6.72
2022-11-15T01:56:26.351Z,6.81
2022-11-15T02:01:29.467Z,6.94
2022-11-15T02:06:31.432Z,7.02
2022-11-15T02:11:33.312Z,7.10
2022-11-15T02:16:51.650Z,7.12
2022-11-15T02:22:22.658Z,7.25
2022-11-15T02:27:51.721Z,7.30
2022-11-15T02:32:55.587Z,7.37
2022-11-15T02:38:00.382Z,7.41
2022-11-15T02:43:28.362Z,7.63
2022-11-15T02:48:32.641Z,7.56
2022-11-15T02:53:34.382Z,7.58
2022-11-15T02:59:02.889Z,7.74
2022-11-15T03:04:22.460Z,7.78
2022-11-15T03:09:36.880Z,7.87
2022-11-15T03:15:01.375Z,7.91
2022-11-15T03:20:06.956Z,8.00
2022-11-15T03:25:12.136Z,8.06
2022-11-15T03:30:14.697Z,8.22
2022-11-15T03:35:21.470Z,8.29
2022-11-15T03:40:25.233Z,8.30
2022-11-15T03:45:40.620Z,8.42
2022-11-15T03:50:44.378Z,8.44
2022-11-15T03:55:45.941Z,8.42
2022-11-15T04:00:47.385Z,8.55
2022-11-15T04:05:48.928Z,8.81
2022-11-15T04:10:51.091Z,8.84
2022-11-15T04:15:52.750Z,8.83
2022-11-15T04:21:12.784Z,8.80
2022-11-15T04:26:19.220Z,8.97
2022-11-15T04:31:20.582Z,8.85
2022-11-15T04:36:41.298Z,8.88
2022-11-15T04:41:42.732Z,8.94
2022-11-15T04:46:44.134Z,8.76
2022-11-15T04:51:46.069Z,9.06
2022-11-15T04:56:47.500Z,9.07
2022-11-15T05:01:48.903Z,9.06
2022-11-15T05:06:52.480Z,9.15
2022-11-15T05:11:53.919Z,9.23
2022-11-15T05:16:55.283Z,9.19
2022-11-15T05:21:56.839Z,9.25
2022-11-15T05:26:58.429Z,9.33
2022-11-15T05:32:00.428Z,9.41
2022-11-15T05:37:01.877Z,9.34
2022-11-15T05:42:09.520Z,9.39
2022-11-15T05:47:15.273Z,9.56
2022-11-15T05:52:21.272Z,9.50
2022-11-15T05:57:22.875Z,9.57
2022-11-15T06:02:24.378Z,9.53
2022-11-15T06:07:25.886Z,9.62
2022-11-15T06:12:27.411Z,9.70
2022-11-15T06:17:29.952Z,9.65
2022-11-15T06:22:31.336Z,9.64
2022-11-15T06:27:32.743Z,9.61
2022-11-15T06:32:34.160Z,9.53
2022-11-15T06:37:35.552Z,9.60
2022-11-15T06:42:37.026Z,9.74
2022-11-15T06:47:47.293Z,9.73
2022-11-15T06:52:49.241Z,9.64
2022-11-15T06:57:52.527Z,9.75
2022-11-15T07:02:54.136Z,9.78
2022-11-15T07:07:56.728Z,9.74
2022-11-15T07:12:58.130Z,9.66
2022-11-15T07:18:02.132Z,9.65
2022-11-15T07:23:06.565Z,9.64
2022-11-15T07:28:08.221Z,9.71
2022-11-15T07:33:10.061Z,9.75
2022-11-15T07:38:11.452Z,9.76
2022-11-15T07:43:12.968Z,9.72
2022-11-15T07:48:14.393Z,9.74
2022-11-15T07:53:15.893Z,9.72
2022-11-15T07:58:17.272Z,9.75
2022-11-15T08:03:18.725Z,9.78
2022-11-15T08:08:20.434Z,9.74
2022-11-15T08:13:22.274Z,9.75
2022-11-15T08:18:23.950Z,9.64
2022-11-15T08:23:25.544Z,9.77
2022-11-15T08:28:26.912Z,9.78
2022-11-15T08:33:29.161Z,9.78
2022-11-15T08:38:31.748Z,9.84
2022-11-15T08:43:34.354Z,9.86
2022-11-15T08:48:36.150Z,9.88
2022-11-15T08:53:37.723Z,9.93
2022-11-15T08:58:39.635Z,9.98
2022-11-15T09:03:41.623Z,10.00
2022-11-15T09:08:47.816Z,10.02
2022-11-15T09:13:50.042Z,10.02
2022-11-15T09:18:51.397Z,10.01
2022-11-15T09:23:53.351Z,10.03
2022-11-15T09:28:54.791Z,10.07
2022-11-15T09:33:56.781Z,10.10
2022-11-15T09:39:01.126Z,10.15
2022-11-15T09:44:08.170Z,10.40
2022-11-15T09:49:12.716Z,10.62
2022-11-15T10:05:43.146Z,10.82
2022-11-15T10:10:47.894Z,10.74
2022-11-15T10:15:51.486Z,10.60
2022-11-15T10:21:21.027Z,10.63
2022-11-15T10:26:24.547Z,10.58
2022-11-15T10:31:29.610Z,10.67
2022-11-15T10:36:31.170Z,10.65
2022-11-15T10:41:37.223Z,10.68
2022-11-15T10:46:48.876Z,10.62
2022-11-15T10:52:05.254Z,10.66
2022-11-15T10:57:19.464Z,11.19
2022-11-15T11:02:43.184Z,11.51
2022-11-15T11:07:57.459Z,11.65
2022-11-15T11:13:15.257Z,11.56
2022-11-15T11:18:29.467Z,11.29
2022-11-15T11:23:48.641Z,11.73
2022-11-15T11:29:01.851Z,12.03
2022-11-15T11:34:25.244Z,12.01
2022-11-15T11:39:46.060Z,11.61
2022-11-15T11:45:06.383Z,11.79
2022-11-15T11:50:21.412Z,11.71
2022-11-15T11:55:44.017Z,11.42
2022-11-15T12:00:55.520Z,11.57
2022-11-15T12:06:03.396Z,11.55
2022-11-15T12:11:14.352Z,11.48
2022-11-15T12:16:22.882Z,11.56
2022-11-15T12:21:43.224Z,11.45
2022-11-15T12:26:53.729Z,11.44
2022-11-15T12:31:59.144Z,11.39
2022-11-15T12:37:00.638Z,11.43
2022-11-15T12:42:05.114Z,11.35
2022-11-15T12:47:09.466Z,11.33
2022-11-15T12:52:11.130Z,11.31
2022-11-15T12:57:15.229Z,11.40
2022-11-15T13:02:22.696Z,11.32
2022-11-15T13:07:36.399Z,11.36
2022-11-15T13:12:43.478Z,11.34
2022-11-15T13:17:48.807Z,11.40
2022-11-15T13:23:15.721Z,11.33
2022-11-15T13:28:17.032Z,11.20
2022-11-15T13:33:23.091Z,11.19
2022-11-15T13:38:34.937Z,11.14
2022-11-15T13:43:37.142Z,11.04
2022-11-15T13:48:39.361Z,11.09
2022-11-15T13:53:47.453Z,11.03
2022-11-15T13:58:49.168Z,10.95
2022-11-15T14:04:01.632Z,10.84
2022-11-15T14:09:11.926Z,10.80
2022-11-15T14:14:16.408Z,10.72
2022-11-15T14:19:20.740Z,10.77
2022-11-15T14:24:22.501Z,10.71
2022-11-15T14:29:29.580Z,10.78
2022-11-15T14:34:33.265Z,10.76
2022-11-15T14:39:34.606Z,10.67
2022-11-15T14:44:36.092Z,10.77
2022-11-15T14:49:37.584Z,10.63
2022-11-15T14:54:39.339Z,10.60
2022-11-15T14:59:40.794Z,10.63
2022-11-15T15:04:42.186Z,10.56
2022-11-15T15:09:44.185Z,10.61
2022-11-15T15:14:47.530Z,10.82
2022-11-15T15:19:48.943Z,10.64
2022-11-15T15:24:50.313Z,10.63
2022-11-15T15:29:51.886Z,10.58
2022-11-15T15:34:53.455Z,10.64
2022-11-15T15:39:57.513Z,10.63
2022-11-15T15:44:58.921Z,10.52
2022-11-15T15:50:00.424Z,10.61
2022-11-15T15:55:01.786Z,10.72
2022-11-15T16:00:05.253Z,10.54
2022-11-15T16:05:07.320Z,10.55
2022-11-15T16:10:30.568Z,10.63
2022-11-15T16:15:33.115Z,10.59
2022-11-15T16:20:46.334Z,10.70
2022-11-15T16:25:53.870Z,10.66
2022-11-15T16:31:01.407Z,10.68
2022-11-15T16:36:04.192Z,10.66
2022-11-15T16:41:05.695Z,10.61
2022-11-15T16:46:16.462Z,10.71
2022-11-15T16:51:18.062Z,10.54
2022-11-15T16:56:24.577Z,10.81
2022-11-15T17:01:28.973Z,10.74
2022-11-15T17:06:30.507Z,10.91
2022-11-15T17:11:32.081Z,10.84
2022-11-15T17:16:34.243Z,10.94
2022-11-15T17:21:35.690Z,10.86
2022-11-15T17:26:40.766Z,10.75
2022-11-15T17:31:42.512Z,10.79
2022-11-15T17:36:44.024Z,10.66
2022-11-15T17:41:45.412Z,10.69
2022-11-15T17:46:46.787Z,10.76
2022-11-15T17:51:50.137Z,10.70
2022-11-15T17:56:51.800Z,10.72
2022-11-15T18:01:54.040Z,10.94
2022-11-15T18:06:56.407Z,10.85
2022-11-15T18:11:58.623Z,10.75
2022-11-15T18:17:00.009Z,10.75
2022-11-15T18:22:01.852Z,10.63
2022-11-15T18:27:06.851Z,10.66
2022-11-15T18:32:12.527Z,10.57
2022-11-15T18:37:14.028Z,10.62
2022-11-15T18:42:15.390Z,10.59
2022-11-15T18:47:16.924Z,10.47
2022-11-15T18:52:18.381Z,10.40
2022-11-15T18:57:19.778Z,10.37
2022-11-15T19:02:21.270Z,10.30
2022-11-15T19:07:22.736Z,10.26
2022-11-15T19:12:24.350Z,10.22
2022-11-15T19:17:28.053Z,10.20
2022-11-15T19:22:29.900Z,10.26
2022-11-15T19:27:36.872Z,10.24
2022-11-15T19:32:39.928Z,10.24
2022-11-15T19:37:41.373Z,10.24
2022-11-15T19:42:43.364Z,10.23
2022-11-15T19:47:45.387Z,10.30
2022-11-15T19:52:49.984Z,10.26
2022-11-15T19:57:51.624Z,10.22
2022-11-15T20:02:55.744Z,10.26
2022-11-15T20:08:00.156Z,10.26
2022-11-15T20:13:04.127Z,10.25
2022-11-15T20:18:07.978Z,10.25
2022-11-15T20:23:09.658Z,10.30
2022-11-15T20:28:16.561Z,10.24
2022-11-15T20:33:18.284Z,10.26
2022-11-15T20:38:21.738Z,10.26
2022-11-15T20:43:23.468Z,10.23
2022-11-15T20:48:25.005Z,10.21
2022-11-15T20:53:30.544Z,10.19
2022-11-15T20:58:34.020Z,10.22
2022-11-15T21:03:36.150Z,10.18
2022-11-15T21:08:56.537Z,10.17
2022-11-15T21:14:02.062Z,10.16
2022-11-15T21:19:09.030Z,10.17
2022-11-15T21:24:10.564Z,10.14
2022-11-15T21:29:16.979Z,10.17
2022-11-15T21:34:19.234Z,10.13
2022-11-15T21:39:20.614Z,10.18
2022-11-15T21:44:24.986Z,10.15
2022-11-15T21:49:27.406Z,10.16
2022-11-15T21:54:29.825Z,10.16
2022-11-15T21:59:32.276Z,10.17
2022-11-15T22:04:33.827Z,10.16
2022-11-15T22:09:37.135Z,10.16
2022-11-15T22:14:38.598Z,10.16
2022-11-15T22:19:52.254Z,10.19
2022-11-15T22:24:55.148Z,10.19
2022-11-15T22:29:56.816Z,10.24
2022-11-15T22:34:58.810Z,10.27
2022-11-15T22:40:00.390Z,10.28
2022-11-15T22:45:01.856Z,10.28
2022-11-15T22:50:06.429Z,10.27
2022-11-15T22:55:08.276Z,10.28
2022-11-15T23:00:15.669Z,10.34
2022-11-15T23:05:17.147Z,10.32
2022-11-15T23:10:37.138Z,10.35
2022-11-15T23:15:56.897Z,10.32
2022-11-15T23:20:58.297Z,10.37
2022-11-15T23:26:01.128Z,10.37
2022-11-15T23:31:23.362Z,10.36
2022-11-15T23:36:26.751Z,10.35
2022-11-15T23:41:28.153Z,10.39
2022-11-15T23:46:29.761Z,10.38
2022-11-15T23:51:31.324Z,10.40
2022-11-15T23:56:32.963Z,10.38
